createdAt,value
2018-06-16T00:01:48.444Z,48.63
2018-06-16T00:04:17.313Z,48.16
2018-06-16T00:06:45.228Z,48.35
2018-06-16T00:09:13.222Z,48.12
2018-06-16T00:11:41.053Z,48.74
2018-06-16T00:14:08.868Z,48.16
2018-06-16T00:16:36.744Z,48.65
2018-06-16T00:19:04.625Z,48.08
2018-06-16T00:21:32.529Z,48.14
2018-06-16T00:24:00.403Z,48.32
2018-06-16T00:26:29.275Z,48.38
2018-06-16T00:28:57.163Z,48.60
2018-06-16T00:31:25.061Z,48.75
2018-06-16T00:33:53.261Z,48.27
2018-06-16T00:36:21.066Z,48.21
2018-06-16T00:38:48.942Z,48.93
2018-06-16T00:41:17.035Z,48.25
2018-06-16T00:43:44.852Z,48.81
2018-06-16T00:46:12.789Z,48.43
2018-06-16T00:48:40.827Z,48.78
2018-06-16T00:51:08.704Z,48.90
2018-06-16T00:53:36.661Z,49.01
2018-06-16T00:56:04.714Z,48.88
2018-06-16T00:58:32.645Z,48.26
2018-06-16T01:01:00.649Z,48.42
2018-06-16T01:03:28.517Z,48.36
2018-06-16T01:05:57.242Z,49.05
2018-06-16T01:08:25.118Z,48.29
2018-06-16T01:10:53.068Z,49.03
2018-06-16T01:13:20.975Z,48.37
2018-06-16T01:15:48.826Z,48.48
2018-06-16T01:18:16.668Z,48.97
2018-06-16T01:20:44.615Z,49.12
2018-06-16T01:23:12.994Z,48.79
2018-06-16T01:25:40.825Z,49.05
2018-06-16T01:28:08.718Z,48.80
2018-06-16T01:30:37.438Z,48.47
2018-06-16T01:33:05.408Z,48.56
2018-06-16T01:35:33.245Z,48.50
2018-06-16T01:38:01.201Z,49.16
2018-06-16T01:40:29.168Z,48.64
2018-06-16T01:42:57.038Z,48.99
2018-06-16T01:45:25.545Z,49.21
2018-06-16T01:47:53.535Z,48.89
2018-06-16T01:50:21.404Z,48.71
2018-06-16T01:52:49.403Z,48.83
2018-06-16T01:55:17.318Z,48.91
2018-06-16T01:57:46.384Z,49.31
2018-06-16T02:00:14.360Z,48.68
2018-06-16T02:02:42.261Z,48.67
2018-06-16T02:05:10.174Z,48.95
2018-06-16T02:07:37.974Z,49.05
2018-06-16T02:10:07.026Z,49.35
2018-06-16T02:12:34.958Z,49.15
2018-06-16T02:15:02.833Z,48.67
2018-06-16T02:17:30.864Z,49.39
2018-06-16T02:19:58.766Z,48.88
2018-06-16T02:22:26.877Z,48.84
2018-06-16T02:24:55.050Z,49.07
2018-06-16T02:27:24.003Z,49.42
2018-06-16T02:29:51.761Z,49.26
2018-06-16T02:32:19.565Z,48.64
2018-06-16T02:34:47.541Z,49.46
2018-06-16T02:37:15.405Z,48.86
2018-06-16T02:39:43.330Z,49.05
2018-06-16T02:42:11.288Z,49.27
2018-06-16T02:44:39.163Z,49.21
2018-06-16T02:47:07.019Z,48.61
2018-06-16T02:49:34.913Z,49.33
2018-06-16T02:52:02.839Z,48.99
2018-06-16T02:54:32.111Z,48.71
2018-06-16T02:57:00.099Z,48.93
2018-06-16T02:59:27.971Z,48.80
2018-06-16T03:01:55.793Z,48.81
2018-06-16T03:04:23.741Z,48.69
2018-06-16T03:06:52.593Z,49.44
2018-06-16T03:09:20.595Z,48.73
2018-06-16T03:11:48.458Z,48.86
2018-06-16T03:14:16.314Z,49.48
2018-06-16T03:16:44.390Z,49.39
2018-06-16T03:19:12.276Z,49.41
2018-06-16T03:21:40.195Z,49.38
2018-06-16T03:24:08.098Z,49.50
2018-06-16T03:26:35.925Z,49.39
2018-06-16T03:29:03.852Z,49.01
2018-06-16T03:31:32.665Z,49.48
2018-06-16T03:34:00.601Z,49.43
2018-06-16T03:36:29.099Z,49.48
2018-06-16T03:38:57.887Z,48.77
2018-06-16T03:41:25.898Z,48.84
2018-06-16T03:43:53.833Z,48.93
2018-06-16T03:46:21.748Z,49.40
2018-06-16T03:48:49.770Z,49.13
2018-06-16T03:51:18.524Z,48.85
2018-06-16T03:53:46.476Z,48.82
2018-06-16T03:56:14.244Z,48.82
2018-06-16T03:58:42.077Z,49.30
2018-06-16T04:01:10.790Z,48.75
2018-06-16T04:03:38.799Z,49.25
2018-06-16T04:06:06.727Z,49.32
2018-06-16T04:08:34.849Z,48.81
2018-06-16T04:11:02.779Z,48.62
2018-06-16T04:13:30.666Z,49.84
2018-06-16T04:15:58.657Z,49.33
2018-06-16T04:18:26.608Z,48.58
2018-06-16T04:20:54.519Z,49.22
2018-06-16T04:23:22.425Z,48.91
2018-06-16T04:25:50.223Z,48.74
2018-06-16T04:28:18.241Z,48.65
2018-06-16T04:30:46.106Z,49.24
2018-06-16T04:33:13.988Z,49.17
2018-06-16T04:35:41.949Z,48.43
2018-06-16T04:38:09.793Z,48.49
2018-06-16T04:40:37.591Z,48.92
2018-06-16T04:43:05.567Z,48.44
2018-06-16T04:45:33.483Z,49.04
2018-06-16T04:48:01.384Z,48.31
2018-06-16T04:50:29.218Z,48.84
2018-06-16T04:52:57.039Z,48.50
2018-06-16T04:55:24.940Z,48.82
2018-06-16T04:57:52.722Z,48.62
2018-06-16T05:00:20.497Z,48.93
2018-06-16T05:02:48.450Z,49.50
2018-06-16T05:05:16.242Z,48.32
2018-06-16T05:07:44.082Z,48.47
2018-06-16T05:10:11.890Z,48.91
2018-06-16T05:12:39.682Z,48.98
2018-06-16T05:15:07.813Z,48.37
2018-06-16T05:17:35.612Z,48.81
2018-06-16T05:20:03.407Z,48.93
2018-06-16T05:22:31.174Z,49.01
2018-06-16T05:24:59.216Z,48.15
2018-06-16T05:27:27.213Z,48.41
2018-06-16T05:29:54.973Z,48.72
2018-06-16T05:32:22.914Z,48.32
2018-06-16T05:34:50.783Z,48.33
2018-06-16T05:37:18.564Z,49.01
2018-06-16T05:39:46.277Z,48.85
2018-06-16T05:42:14.024Z,48.94
2018-06-16T05:44:41.924Z,48.78
2018-06-16T05:47:09.819Z,48.12
2018-06-16T05:49:37.816Z,48.21
2018-06-16T05:52:05.566Z,48.74
2018-06-16T05:54:33.658Z,48.83
2018-06-16T05:57:01.583Z,48.48
2018-06-16T05:59:29.537Z,48.04
2018-06-16T06:01:57.240Z,47.92
2018-06-16T06:04:24.867Z,48.08
2018-06-16T06:06:52.666Z,47.87
2018-06-16T06:09:20.318Z,48.43
2018-06-16T06:11:48.324Z,48.35
2018-06-16T06:14:16.073Z,48.37
2018-06-16T06:16:44.157Z,48.25
2018-06-16T06:19:11.807Z,47.61
2018-06-16T06:21:39.456Z,48.24
2018-06-16T06:24:07.436Z,47.86
2018-06-16T06:26:35.108Z,48.07
2018-06-16T06:29:02.761Z,48.05
2018-06-16T06:31:30.679Z,47.89
2018-06-16T06:33:58.665Z,47.29
2018-06-16T06:36:26.629Z,47.18
2018-06-16T06:38:54.913Z,47.41
2018-06-16T06:41:22.569Z,47.19
2018-06-16T06:43:50.217Z,47.31
2018-06-16T06:46:18.225Z,46.74
2018-06-16T06:48:45.927Z,46.81
2018-06-16T06:51:13.576Z,47.39
2018-06-16T06:53:41.278Z,46.86
2018-06-16T06:56:08.989Z,46.44
2018-06-16T06:58:36.874Z,47.03
2018-06-16T07:01:04.818Z,46.58
2018-06-16T07:03:32.540Z,47.08
2018-06-16T07:06:00.192Z,46.79
2018-06-16T07:08:28.128Z,46.21
2018-06-16T07:10:55.956Z,46.53
2018-06-16T07:13:23.550Z,46.13
2018-06-16T07:15:51.520Z,45.65
2018-06-16T07:18:19.385Z,46.31
2018-06-16T07:20:47.261Z,45.66
2018-06-16T07:23:14.876Z,45.50
2018-06-16T07:25:42.566Z,46.15
2018-06-16T07:28:10.576Z,45.38
2018-06-16T07:30:38.227Z,45.28
2018-06-16T07:33:06.327Z,45.37
2018-06-16T07:35:34.190Z,45.53
2018-06-16T07:38:01.977Z,45.27
2018-06-16T07:40:29.842Z,45.60
2018-06-16T07:42:57.797Z,45.90
2018-06-16T07:45:25.565Z,45.86
2018-06-16T07:47:53.648Z,45.35
2018-06-16T07:50:21.468Z,44.97
2018-06-16T07:52:49.232Z,45.10
2018-06-16T07:55:17.122Z,45.63
2018-06-16T07:57:44.823Z,45.87
2018-06-16T08:00:12.717Z,44.95
2018-06-16T08:02:40.463Z,46.00
2018-06-16T08:05:08.702Z,44.94
2018-06-16T08:07:36.637Z,45.60
2018-06-16T08:10:04.492Z,45.10
2018-06-16T08:12:32.163Z,45.64
2018-06-16T08:14:59.956Z,45.60
2018-06-16T08:17:27.874Z,44.62
2018-06-16T08:19:55.589Z,45.36
2018-06-16T08:22:23.393Z,44.77
2018-06-16T08:24:51.300Z,44.45
2018-06-16T08:27:19.014Z,44.52
2018-06-16T08:29:46.743Z,45.12
2018-06-16T08:32:14.677Z,45.02
2018-06-16T08:34:42.502Z,45.25
2018-06-16T08:37:11.081Z,45.06
2018-06-16T08:39:38.895Z,45.21
2018-06-16T08:42:06.655Z,44.20
2018-06-16T08:44:34.432Z,44.85
2018-06-16T08:47:02.370Z,44.37
2018-06-16T08:49:30.142Z,44.34
2018-06-16T08:51:58.069Z,44.14
2018-06-16T08:54:25.857Z,44.13
2018-06-16T08:56:53.637Z,44.07
2018-06-16T08:59:21.407Z,44.06
2018-06-16T09:01:49.152Z,44.17
2018-06-16T09:04:17.016Z,44.49
2018-06-16T09:06:44.787Z,44.86
2018-06-16T09:09:12.832Z,44.12
2018-06-16T09:11:40.558Z,44.15
2018-06-16T09:14:08.303Z,44.65
2018-06-16T09:16:36.131Z,44.25
2018-06-16T09:19:04.184Z,44.81
2018-06-16T09:21:31.935Z,43.92
2018-06-16T09:23:59.714Z,43.87
2018-06-16T09:26:27.557Z,44.51
2018-06-16T09:28:55.433Z,44.24
2018-06-16T09:31:23.343Z,44.28
2018-06-16T09:33:51.247Z,43.50
2018-06-16T09:36:18.975Z,43.84
2018-06-16T09:38:46.737Z,44.52
2018-06-16T09:41:14.511Z,43.46
2018-06-16T09:43:42.439Z,44.38
2018-06-16T09:46:10.168Z,43.90
2018-06-16T09:48:37.980Z,43.57
2018-06-16T09:51:05.953Z,43.89
2018-06-16T09:53:33.791Z,43.81
2018-06-16T09:56:01.621Z,43.82
2018-06-16T09:58:29.473Z,44.48
2018-06-16T10:00:57.291Z,43.52
2018-06-16T10:03:25.175Z,44.58
2018-06-16T10:05:52.877Z,44.42
2018-06-16T10:08:20.704Z,44.45
2018-06-16T10:10:48.510Z,44.27
2018-06-16T10:13:16.361Z,44.40
2018-06-16T10:15:44.203Z,44.71
2018-06-16T10:18:11.968Z,44.44
2018-06-16T10:20:39.743Z,44.73
2018-06-16T10:23:07.474Z,43.91
2018-06-16T10:25:35.191Z,44.33
2018-06-16T10:28:03.213Z,44.76
2018-06-16T10:30:31.211Z,44.76
2018-06-16T10:32:59.706Z,44.64
2018-06-16T10:35:28.257Z,44.04
2018-06-16T10:37:55.997Z,44.11
2018-06-16T10:40:23.940Z,43.94
2018-06-16T10:42:51.696Z,44.73
2018-06-16T10:45:19.415Z,43.70
2018-06-16T10:47:47.227Z,44.22
2018-06-16T10:50:15.021Z,43.88
2018-06-16T10:52:42.862Z,44.42
2018-06-16T10:55:10.690Z,43.62
2018-06-16T10:57:38.505Z,44.39
2018-06-16T11:00:06.414Z,43.92
2018-06-16T11:02:34.180Z,44.05
2018-06-16T11:05:01.887Z,43.92
2018-06-16T11:07:29.764Z,43.91
2018-06-16T11:09:58.085Z,43.18
2018-06-16T11:12:25.840Z,43.50
2018-06-16T11:14:53.614Z,43.17
2018-06-16T11:17:21.496Z,43.59
2018-06-16T11:19:49.407Z,43.25
2018-06-16T11:22:17.134Z,43.33
2018-06-16T11:24:44.917Z,43.14
2018-06-16T11:27:12.752Z,43.64
2018-06-16T11:29:40.476Z,43.56
2018-06-16T11:32:08.361Z,43.04
2018-06-16T11:34:36.119Z,43.17
2018-06-16T11:37:03.893Z,43.64
2018-06-16T11:39:31.697Z,42.81
2018-06-16T11:41:59.435Z,42.91
2018-06-16T11:44:27.327Z,42.82
2018-06-16T11:46:55.150Z,42.60
2018-06-16T11:49:23.014Z,43.47
2018-06-16T11:51:50.770Z,42.73
2018-06-16T11:54:18.456Z,43.40
2018-06-16T11:56:46.232Z,43.30
2018-06-16T11:59:14.100Z,43.09
2018-06-16T12:01:41.908Z,43.03
2018-06-16T12:04:09.675Z,42.44
2018-06-16T12:06:37.586Z,42.64
2018-06-16T12:09:08.250Z,42.86
2018-06-16T12:11:36.218Z,42.49
2018-06-16T12:14:04.029Z,42.99
2018-06-16T12:16:31.841Z,43.37
2018-06-16T12:18:59.632Z,43.60
2018-06-16T12:21:27.720Z,43.21
2018-06-16T12:23:55.493Z,43.58
2018-06-16T12:26:23.221Z,43.38
2018-06-16T12:28:50.921Z,42.73
2018-06-16T12:31:18.873Z,43.13
2018-06-16T12:33:46.619Z,43.63
2018-06-16T12:36:14.461Z,43.12
2018-06-16T12:38:42.187Z,43.35
2018-06-16T12:41:10.121Z,43.29
2018-06-16T12:43:37.766Z,43.19
2018-06-16T12:46:05.516Z,43.22
2018-06-16T12:48:33.589Z,43.23
2018-06-16T12:51:01.354Z,42.82
2018-06-16T12:53:29.190Z,42.94
2018-06-16T12:55:57.067Z,43.11
2018-06-16T12:58:24.725Z,43.67
2018-06-16T13:00:52.636Z,43.15
2018-06-16T13:03:20.655Z,42.27
2018-06-16T13:05:48.460Z,42.75
2018-06-16T13:08:16.396Z,42.33
2018-06-16T13:10:44.185Z,42.21
2018-06-16T13:13:12.082Z,42.60
2018-06-16T13:15:39.914Z,42.01
2018-06-16T13:18:07.780Z,42.27
2018-06-16T13:20:35.473Z,42.06
2018-06-16T13:23:03.393Z,41.86
2018-06-16T13:25:31.216Z,42.64
2018-06-16T13:27:58.906Z,42.49
2018-06-16T13:30:26.851Z,41.92
2018-06-16T13:32:54.602Z,42.73
2018-06-16T13:35:22.412Z,42.37
2018-06-16T13:37:50.382Z,42.66
2018-06-16T13:40:18.173Z,42.89
2018-06-16T13:42:45.937Z,43.46
2018-06-16T13:45:13.694Z,43.09
2018-06-16T13:47:41.501Z,43.54
2018-06-16T13:50:09.336Z,43.72
2018-06-16T13:52:37.256Z,43.18
2018-06-16T13:55:05.306Z,42.85
2018-06-16T13:57:33.061Z,42.04
2018-06-16T14:00:00.883Z,42.78
2018-06-16T14:02:28.816Z,42.45
2018-06-16T14:04:56.643Z,42.04
2018-06-16T14:07:24.653Z,42.11
2018-06-16T14:09:52.633Z,42.50
2018-06-16T14:12:20.421Z,42.68
2018-06-16T14:14:48.190Z,42.72
2018-06-16T14:17:15.972Z,42.88
2018-06-16T14:19:43.723Z,43.26
2018-06-16T14:22:11.613Z,43.23
2018-06-16T14:24:39.332Z,43.03
2018-06-16T14:27:07.085Z,43.60
2018-06-16T14:29:34.969Z,43.37
2018-06-16T14:32:02.777Z,43.88
2018-06-16T14:34:30.602Z,43.72
2018-06-16T14:36:58.288Z,43.19
2018-06-16T14:39:26.134Z,43.69
2018-06-16T14:41:54.111Z,43.23
2018-06-16T14:44:21.954Z,43.12
2018-06-16T14:46:49.679Z,42.68
2018-06-16T14:49:17.437Z,42.60
2018-06-16T14:51:45.269Z,41.87
2018-06-16T14:54:13.118Z,41.70
2018-06-16T14:56:41.015Z,40.94
2018-06-16T14:59:08.755Z,41.58
2018-06-16T15:01:36.562Z,42.14
2018-06-16T15:04:04.414Z,42.50
2018-06-16T15:06:32.359Z,42.66
2018-06-16T15:09:00.166Z,43.45
2018-06-16T15:11:27.985Z,43.28
2018-06-16T15:13:55.819Z,43.65
2018-06-16T15:16:23.843Z,43.85
2018-06-16T15:18:51.629Z,44.01
2018-06-16T15:21:19.676Z,43.49
2018-06-16T15:23:47.530Z,44.01
2018-06-16T15:26:15.291Z,43.84
2018-06-16T15:28:43.129Z,43.63
2018-06-16T15:31:11.189Z,43.91
2018-06-16T15:33:39.012Z,43.25
2018-06-16T15:36:06.845Z,43.29
2018-06-16T15:38:34.677Z,43.29
2018-06-16T15:41:02.696Z,42.41
2018-06-16T15:43:30.461Z,43.33
2018-06-16T15:45:58.194Z,42.48
2018-06-16T15:48:25.897Z,41.54
2018-06-16T15:50:53.735Z,41.56
2018-06-16T15:53:21.540Z,41.37
2018-06-16T15:55:50.111Z,41.85
2018-06-16T15:58:18.071Z,41.96
2018-06-16T16:00:45.710Z,42.21
2018-06-16T16:03:13.407Z,42.01
2018-06-16T16:05:41.105Z,42.11
2018-06-16T16:08:08.752Z,41.69
2018-06-16T16:10:36.373Z,42.71
2018-06-16T16:13:04.279Z,41.89
2018-06-16T16:15:31.959Z,42.88
2018-06-16T16:17:59.607Z,42.84
2018-06-16T16:20:27.779Z,42.61
2018-06-16T16:22:55.401Z,42.91
2018-06-16T16:25:23.053Z,42.70
2018-06-16T16:27:51.067Z,42.44
2018-06-16T16:30:18.722Z,43.54
2018-06-16T16:32:46.698Z,42.70
2018-06-16T16:35:14.370Z,43.34
2018-06-16T16:37:42.038Z,42.77
2018-06-16T16:40:10.149Z,43.11
2018-06-16T16:42:38.361Z,43.21
2018-06-16T16:45:06.353Z,43.37
2018-06-16T16:47:34.166Z,43.21
2018-06-16T16:50:01.818Z,43.13
2018-06-16T16:52:29.677Z,44.10
2018-06-16T16:54:57.322Z,44.43
2018-06-16T16:57:25.246Z,44.34
2018-06-16T16:59:53.195Z,43.52
2018-06-16T17:02:20.928Z,43.35
2018-06-16T17:04:48.697Z,43.94
2018-06-16T17:07:16.620Z,43.14
2018-06-16T17:09:44.250Z,44.06
2018-06-16T17:12:12.285Z,44.12
2018-06-16T17:14:39.909Z,43.45
2018-06-16T17:17:07.689Z,44.51
2018-06-16T17:19:35.446Z,44.13
2018-06-16T17:22:03.135Z,44.01
2018-06-16T17:24:30.770Z,43.04
2018-06-16T17:26:58.435Z,43.01
2018-06-16T17:29:26.675Z,42.65
2018-06-16T17:31:54.965Z,41.63
2018-06-16T17:34:23.165Z,42.10
2018-06-16T17:36:51.097Z,42.35
2018-06-16T17:39:19.570Z,42.95
2018-06-16T17:41:47.470Z,43.03
2018-06-16T17:44:15.134Z,43.31
2018-06-16T17:46:43.152Z,43.16
2018-06-16T17:49:11.170Z,43.31
2018-06-16T17:51:38.786Z,43.26
2018-06-16T17:54:06.543Z,44.08
2018-06-16T17:56:34.902Z,43.68
2018-06-16T17:59:03.126Z,44.13
2018-06-16T18:01:30.741Z,44.63
2018-06-16T18:03:58.537Z,44.01
2018-06-16T18:06:26.278Z,44.65
2018-06-16T18:08:54.026Z,44.73
2018-06-16T18:11:21.760Z,44.71
2018-06-16T18:13:49.549Z,44.97
2018-06-16T18:16:17.251Z,44.54
2018-06-16T18:18:44.988Z,44.65
2018-06-16T18:21:12.692Z,44.86
2018-06-16T18:23:40.515Z,44.71
2018-06-16T18:26:08.429Z,44.55
2018-06-16T18:28:36.156Z,44.56
2018-06-16T18:31:03.849Z,44.50
2018-06-16T18:33:31.578Z,44.66
2018-06-16T18:35:59.315Z,45.14
2018-06-16T18:38:27.146Z,45.45
2018-06-16T18:40:54.965Z,45.14
2018-06-16T18:43:22.709Z,45.48
2018-06-16T18:45:50.448Z,45.49
2018-06-16T18:48:18.428Z,45.71
2018-06-16T18:50:46.749Z,44.77
2018-06-16T18:53:14.561Z,45.12
2018-06-16T18:55:42.425Z,46.06
2018-06-16T18:58:10.372Z,45.19
2018-06-16T19:00:38.142Z,45.92
2018-06-16T19:03:05.898Z,45.89
2018-06-16T19:05:33.723Z,45.25
2018-06-16T19:08:01.458Z,45.78
2018-06-16T19:10:29.265Z,45.53
2018-06-16T19:12:57.114Z,45.41
2018-06-16T19:15:24.935Z,45.69
2018-06-16T19:17:52.693Z,46.26
2018-06-16T19:20:20.459Z,46.31
2018-06-16T19:22:48.229Z,46.17
2018-06-16T19:25:16.054Z,46.47
2018-06-16T19:27:43.782Z,46.67
2018-06-16T19:30:11.885Z,46.04
2018-06-16T19:32:39.586Z,45.95
2018-06-16T19:35:07.385Z,46.76
2018-06-16T19:37:35.555Z,46.77
2018-06-16T19:40:03.373Z,46.82
2018-06-16T19:42:31.186Z,46.86
2018-06-16T19:44:59.164Z,46.94
2018-06-16T19:47:26.876Z,46.95
2018-06-16T19:49:54.598Z,47.30
2018-06-16T19:52:22.375Z,47.02
2018-06-16T19:54:50.251Z,46.57
2018-06-16T19:57:18.036Z,46.76
2018-06-16T19:59:45.835Z,47.53
2018-06-16T20:02:13.635Z,46.68
2018-06-16T20:04:41.393Z,47.29
2018-06-16T20:07:09.278Z,47.14
2018-06-16T20:09:37.241Z,47.18
2018-06-16T20:12:05.019Z,46.69
2018-06-16T20:14:32.880Z,46.79
2018-06-16T20:17:00.694Z,47.03
2018-06-16T20:19:28.531Z,46.97
2018-06-16T20:21:56.389Z,47.03
2018-06-16T20:24:24.224Z,47.58
2018-06-16T20:26:52.160Z,47.57
2018-06-16T20:29:20.137Z,47.83
2018-06-16T20:31:48.425Z,47.77
2018-06-16T20:34:16.356Z,47.83
2018-06-16T20:36:44.593Z,47.28
2018-06-16T20:39:13.739Z,47.20
2018-06-16T20:41:41.722Z,48.17
2018-06-16T20:44:09.479Z,47.91
2018-06-16T20:46:37.729Z,47.51
2018-06-16T20:49:05.723Z,47.22
2018-06-16T20:51:33.629Z,47.65
2018-06-16T20:54:01.590Z,47.23
2018-06-16T20:56:29.507Z,47.77
2018-06-16T20:58:57.695Z,47.71
2018-06-16T21:01:25.478Z,47.64
2018-06-16T21:03:53.482Z,48.18
2018-06-16T21:06:21.339Z,48.18
2018-06-16T21:08:49.659Z,47.54
2018-06-16T21:11:17.612Z,48.35
2018-06-16T21:13:46.721Z,48.24
2018-06-16T21:16:14.618Z,48.31
2018-06-16T21:18:42.543Z,48.40
2018-06-16T21:21:10.470Z,47.97
2018-06-16T21:23:39.565Z,47.59
2018-06-16T21:26:07.577Z,48.50
2018-06-16T21:28:35.517Z,48.42
2018-06-16T21:31:04.068Z,47.84
2018-06-16T21:33:32.324Z,47.68
2018-06-16T21:36:00.216Z,47.91
2018-06-16T21:38:28.141Z,47.78
2018-06-16T21:40:56.296Z,47.95
2018-06-16T21:43:24.533Z,48.47
2018-06-16T21:45:52.780Z,48.71
2018-06-16T21:48:20.602Z,48.54
2018-06-16T21:50:48.531Z,48.23
2018-06-16T21:53:16.485Z,49.08
2018-06-16T21:55:44.255Z,48.14
2018-06-16T21:58:12.056Z,48.85
2018-06-16T22:00:39.858Z,48.59
2018-06-16T22:03:07.717Z,48.02
2018-06-16T22:05:35.519Z,48.86
2018-06-16T22:08:08.987Z,47.95
2018-06-16T22:10:36.756Z,47.99
2018-06-16T22:13:04.563Z,48.82
2018-06-16T22:15:32.440Z,48.90
2018-06-16T22:18:00.174Z,48.05
2018-06-16T22:20:27.973Z,48.04
2018-06-16T22:22:55.802Z,48.17
2018-06-16T22:25:23.683Z,49.03
2018-06-16T22:27:51.461Z,48.11
2018-06-16T22:30:19.599Z,48.98
2018-06-16T22:32:47.419Z,48.47
2018-06-16T22:35:15.281Z,48.35
2018-06-16T22:37:43.359Z,49.00
2018-06-16T22:40:11.244Z,48.40
2018-06-16T22:42:39.090Z,48.39
2018-06-16T22:45:07.051Z,48.35
2018-06-16T22:47:34.841Z,48.54
2018-06-16T22:50:02.668Z,48.54
2018-06-16T22:52:30.435Z,48.56
2018-06-16T22:54:58.197Z,48.44
2018-06-16T22:57:25.948Z,49.06
2018-06-16T22:59:53.846Z,48.77
2018-06-16T23:02:21.646Z,49.03
2018-06-16T23:04:49.405Z,48.94
2018-06-16T23:07:17.528Z,48.65
2018-06-16T23:09:45.238Z,48.98
2018-06-16T23:12:14.119Z,49.20
2018-06-16T23:14:41.960Z,49.21
2018-06-16T23:17:09.854Z,48.71
2018-06-16T23:19:37.790Z,49.27
2018-06-16T23:22:05.589Z,48.75
2018-06-16T23:24:33.534Z,48.75
2018-06-16T23:27:01.298Z,48.66
2018-06-16T23:29:29.183Z,48.86
2018-06-16T23:31:57.021Z,49.65
2018-06-16T23:34:24.773Z,49.31
2018-06-16T23:36:52.644Z,48.90
2018-06-16T23:39:20.361Z,49.74
2018-06-16T23:41:48.149Z,49.52
2018-06-16T23:44:16.041Z,49.74
2018-06-16T23:46:43.737Z,49.72
2018-06-16T23:49:11.651Z,49.53
2018-06-16T23:51:39.606Z,49.13
2018-06-16T23:54:07.361Z,48.97
2018-06-16T23:56:35.160Z,49.18
2018-06-16T23:59:03.211Z,48.97
